createdAt,value
2023-03-27T00:00:01.772Z,95603.69
2023-03-27T00:02:29.894Z,95607.25
2023-03-27T00:04:57.939Z,95620.06
2023-03-27T00:07:25.862Z,95605.03
2023-03-27T00:09:54.979Z,95604.59
2023-03-27T00:12:22.722Z,95622.88
2023-03-27T00:14:50.459Z,95623.09
2023-03-27T00:17:18.228Z,95629.72
2023-03-27T00:19:46.032Z,95623.63
2023-03-27T00:22:13.858Z,95614.47
2023-03-27T00:24:41.569Z,95627.75
2023-03-27T00:27:11.419Z,95624.69
2023-03-27T00:29:39.727Z,95629.00
2023-03-27T00:32:08.095Z,95629.00
2023-03-27T00:34:35.879Z,95625.59
2023-03-27T00:37:05.515Z,95627.75
2023-03-27T00:39:33.293Z,95629.81
2023-03-27T00:42:01.169Z,95634.16
2023-03-27T00:44:34.316Z,95646.00
2023-03-27T00:47:03.948Z,95639.31
2023-03-27T00:49:35.438Z,95644.63
2023-03-27T00:52:05.479Z,95643.94
2023-03-27T00:54:37.047Z,95651.19
2023-03-27T00:57:08.210Z,95632.06
2023-03-27T00:59:42.050Z,95620.94
2023-03-27T01:02:10.610Z,95628.88
2023-03-27T01:04:39.763Z,95633.19
2023-03-27T01:07:11.236Z,95646.88
2023-03-27T01:09:39.100Z,95646.44
2023-03-27T01:12:27.430Z,95613.94
2023-03-27T01:15:15.552Z,95646.53
2023-03-27T01:17:58.695Z,95649.38
2023-03-27T01:21:19.244Z,95659.72
2023-03-27T01:24:20.295Z,95656.00
2023-03-27T01:27:03.878Z,95662.00
2023-03-27T01:29:57.804Z,95654.31
2023-03-27T01:32:51.405Z,95664.44
2023-03-27T01:35:37.986Z,95675.31
2023-03-27T01:38:32.384Z,95677.84
2023-03-27T01:41:10.364Z,95685.50
2023-03-27T01:43:43.197Z,95652.94
2023-03-27T01:46:18.845Z,95679.75
2023-03-27T01:48:51.475Z,95670.97
2023-03-27T01:51:24.132Z,95674.44
2023-03-27T01:53:56.220Z,95677.31
2023-03-27T01:56:27.146Z,95682.97
2023-03-27T01:58:58.754Z,95690.03
2023-03-27T02:01:34.811Z,95700.38
2023-03-27T02:04:04.014Z,95691.97
2023-03-27T02:06:35.480Z,95702.47
2023-03-27T02:09:08.769Z,95703.22
2023-03-27T02:11:42.508Z,95693.59
2023-03-27T02:14:13.849Z,95707.44
2023-03-27T02:16:46.266Z,95708.97
2023-03-27T02:19:22.206Z,95711.84
2023-03-27T02:21:50.324Z,95715.09
2023-03-27T02:24:18.967Z,95713.50
2023-03-27T02:26:52.826Z,95715.69
2023-03-27T02:29:30.336Z,95717.91
2023-03-27T02:32:11.599Z,95691.38
2023-03-27T02:34:56.487Z,95728.53
2023-03-27T02:37:33.027Z,95733.81
2023-03-27T02:40:12.120Z,95731.59
2023-03-27T02:42:55.819Z,95733.63
2023-03-27T02:45:29.571Z,95739.56
2023-03-27T02:48:04.070Z,95743.03
2023-03-27T02:50:38.188Z,95755.13
2023-03-27T02:53:08.750Z,95752.25
2023-03-27T02:55:41.410Z,95761.47
2023-03-27T02:58:16.396Z,95759.59
2023-03-27T03:00:49.073Z,95768.91
2023-03-27T03:03:28.056Z,95771.13
2023-03-27T03:05:57.356Z,95778.34
2023-03-27T03:08:30.375Z,95783.22
2023-03-27T03:11:03.032Z,95786.16
2023-03-27T03:13:32.200Z,95796.47
2023-03-27T03:16:00.056Z,95797.53
2023-03-27T03:18:27.983Z,95801.38
2023-03-27T03:20:56.382Z,95781.16
2023-03-27T03:23:24.977Z,95812.25
2023-03-27T03:25:56.720Z,95816.69
2023-03-27T03:28:26.003Z,95822.81
2023-03-27T03:30:59.697Z,95826.94
2023-03-27T03:33:27.992Z,95822.72
2023-03-27T03:35:59.053Z,95834.22
2023-03-27T03:38:27.107Z,95829.13
2023-03-27T03:40:55.518Z,95837.75
2023-03-27T03:43:24.269Z,95835.63
2023-03-27T03:45:52.500Z,95849.09
2023-03-27T03:48:22.585Z,95847.63
2023-03-27T03:50:51.073Z,95857.16
2023-03-27T03:53:21.366Z,95849.03
2023-03-27T03:55:52.423Z,95869.81
2023-03-27T03:58:20.264Z,95875.63
2023-03-27T04:00:48.126Z,95872.03
2023-03-27T04:03:16.239Z,95883.00
2023-03-27T04:05:45.506Z,95888.47
2023-03-27T04:08:13.704Z,95896.44
2023-03-27T04:10:42.376Z,95876.94
2023-03-27T04:13:10.348Z,95901.13
2023-03-27T04:15:38.126Z,95904.66
2023-03-27T04:18:06.292Z,95904.25
2023-03-27T04:20:35.223Z,95908.13
2023-03-27T04:23:04.358Z,95912.91
2023-03-27T04:25:32.155Z,95915.34
2023-03-27T04:28:02.240Z,95927.50
2023-03-27T04:30:30.021Z,95928.38
2023-03-27T04:33:00.118Z,95934.13
2023-03-27T04:35:28.028Z,95927.97
2023-03-27T04:37:56.269Z,95935.28
2023-03-27T04:40:25.828Z,95944.66
2023-03-27T04:42:56.288Z,95945.91
2023-03-27T04:45:25.790Z,95953.06
2023-03-27T04:47:54.545Z,95947.97
2023-03-27T04:50:22.486Z,95962.16
2023-03-27T04:52:51.750Z,95967.31
2023-03-27T04:55:19.871Z,95973.84
2023-03-27T04:57:49.287Z,95968.34
2023-03-27T05:00:19.716Z,95984.25
2023-03-27T05:02:50.585Z,95979.81
2023-03-27T05:05:19.476Z,95990.47
2023-03-27T05:07:48.581Z,95992.31
2023-03-27T05:10:17.516Z,95994.97
2023-03-27T05:12:53.276Z,95996.22
2023-03-27T05:15:22.244Z,96001.72
2023-03-27T05:17:53.390Z,96012.13
2023-03-27T05:20:22.342Z,96003.72
2023-03-27T05:22:50.604Z,96024.44
2023-03-27T05:25:18.477Z,96034.78
2023-03-27T05:27:46.939Z,96041.56
2023-03-27T05:30:17.870Z,96039.81
2023-03-27T05:32:48.324Z,96054.97
2023-03-27T05:35:18.083Z,96050.03
2023-03-27T05:37:48.778Z,96042.47
2023-03-27T05:40:21.201Z,96055.78
2023-03-27T05:42:50.531Z,96068.22
2023-03-27T05:45:20.378Z,96059.09
2023-03-27T05:47:49.898Z,96078.44
2023-03-27T05:50:19.191Z,96082.16
2023-03-27T05:52:47.396Z,96067.78
2023-03-27T05:55:15.827Z,96089.13
2023-03-27T05:57:43.602Z,96094.91
2023-03-27T06:00:14.302Z,96107.72
2023-03-27T06:02:44.999Z,96114.63
2023-03-27T06:05:14.881Z,96123.22
2023-03-27T06:07:43.624Z,96125.06
2023-03-27T06:10:14.491Z,96135.63
2023-03-27T06:12:43.722Z,96130.94
2023-03-27T06:15:14.606Z,96136.66
2023-03-27T06:17:48.019Z,96137.44
2023-03-27T06:20:16.103Z,96137.47
2023-03-27T06:22:46.604Z,96162.78
2023-03-27T06:25:14.897Z,96166.69
2023-03-27T06:27:43.568Z,96172.97
2023-03-27T06:30:12.956Z,96177.03
2023-03-27T06:32:46.480Z,96192.53
2023-03-27T06:35:15.690Z,96189.84
2023-03-27T06:37:48.293Z,96187.97
2023-03-27T06:40:22.906Z,96197.34
2023-03-27T06:42:51.852Z,96201.84
2023-03-27T06:45:19.657Z,96219.16
2023-03-27T06:47:55.304Z,96225.88
2023-03-27T06:50:25.438Z,96226.28
2023-03-27T06:52:53.536Z,96240.19
2023-03-27T06:55:23.188Z,96249.97
2023-03-27T06:57:53.162Z,96251.97
2023-03-27T07:00:25.778Z,96271.97
2023-03-27T07:02:57.650Z,96282.59
2023-03-27T07:05:26.431Z,96280.97
2023-03-27T07:07:55.702Z,96294.09
2023-03-27T07:10:24.275Z,96295.78
2023-03-27T07:12:54.540Z,96305.97
2023-03-27T07:15:24.808Z,96311.47
2023-03-27T07:17:58.854Z,96320.66
2023-03-27T07:20:29.225Z,96316.56
2023-03-27T07:22:57.728Z,96330.81
2023-03-27T07:25:25.541Z,96334.09
2023-03-27T07:27:53.402Z,96338.22
2023-03-27T07:30:21.395Z,96350.03
2023-03-27T07:32:49.221Z,96347.56
2023-03-27T07:35:18.617Z,96348.94
2023-03-27T07:37:47.292Z,96365.41
2023-03-27T07:40:16.524Z,96355.78
2023-03-27T07:42:46.143Z,96368.41
2023-03-27T07:45:14.290Z,96370.41
2023-03-27T07:47:42.736Z,96383.03
2023-03-27T07:50:11.993Z,96386.91
2023-03-27T07:52:43.533Z,96381.91
2023-03-27T07:55:17.416Z,96392.34
2023-03-27T07:57:59.835Z,96398.06
2023-03-27T08:00:29.693Z,96397.34
2023-03-27T08:03:06.788Z,96409.31
2023-03-27T08:05:34.969Z,96419.56
2023-03-27T08:08:05.210Z,96416.28
2023-03-27T08:10:33.093Z,96429.81
2023-03-27T08:13:01.143Z,96406.09
2023-03-27T08:15:28.899Z,96423.56
2023-03-27T08:17:56.941Z,96426.00
2023-03-27T08:20:26.132Z,96444.16
2023-03-27T08:22:54.012Z,96435.13
2023-03-27T08:25:23.631Z,96452.06
2023-03-27T08:27:52.107Z,96448.44
2023-03-27T08:30:23.663Z,96455.31
2023-03-27T08:32:52.435Z,96484.72
2023-03-27T08:35:20.435Z,96478.03
2023-03-27T08:37:48.435Z,96485.16
2023-03-27T08:40:21.659Z,96488.00
2023-03-27T08:42:55.402Z,96491.28
2023-03-27T08:45:29.160Z,96498.63
2023-03-27T08:48:02.180Z,96499.25
2023-03-27T08:50:35.385Z,96504.78
2023-03-27T08:53:07.268Z,96505.78
2023-03-27T08:55:41.389Z,96518.66
2023-03-27T08:58:19.686Z,96512.72
2023-03-27T09:00:54.548Z,96510.66
2023-03-27T09:03:27.125Z,96521.50
2023-03-27T09:05:59.304Z,96519.25
2023-03-27T09:08:43.938Z,96514.13
2023-03-27T09:11:27.887Z,96522.91
2023-03-27T09:13:57.670Z,96531.47
2023-03-27T09:16:30.893Z,96536.63
2023-03-27T09:19:04.882Z,96540.91
2023-03-27T09:21:38.608Z,96541.53
2023-03-27T09:24:12.582Z,96549.69
2023-03-27T09:26:40.432Z,96547.84
2023-03-27T09:29:20.009Z,96554.78
2023-03-27T09:31:50.359Z,96559.50
2023-03-27T09:34:24.554Z,96564.41
2023-03-27T09:36:52.766Z,96555.81
2023-03-27T09:39:27.432Z,96562.31
2023-03-27T09:42:00.109Z,96572.94
2023-03-27T09:44:40.035Z,96579.69
2023-03-27T09:47:12.498Z,96581.69
2023-03-27T09:49:44.755Z,96567.41
2023-03-27T09:52:35.575Z,96575.03
2023-03-27T09:55:03.872Z,96577.53
2023-03-27T09:57:33.881Z,96581.63
2023-03-27T10:00:14.466Z,96582.34
2023-03-27T10:02:42.442Z,96576.16
2023-03-27T10:05:18.222Z,96575.44
2023-03-27T10:07:49.173Z,96560.31
2023-03-27T10:10:20.055Z,96576.06
2023-03-27T10:12:54.169Z,96594.03
2023-03-27T10:15:35.707Z,96594.06
2023-03-27T10:18:06.661Z,96593.84
2023-03-27T10:20:35.722Z,96603.69
2023-03-27T10:23:09.822Z,96601.03
2023-03-27T10:25:40.064Z,96598.97
2023-03-27T10:28:18.131Z,96609.94
2023-03-27T10:30:47.485Z,96605.47
2023-03-27T10:33:30.533Z,96616.44
2023-03-27T10:35:59.764Z,96616.50
2023-03-27T10:38:28.688Z,96620.25
2023-03-27T10:40:57.698Z,96623.97
2023-03-27T10:43:31.845Z,96632.38
2023-03-27T10:46:04.709Z,96636.34
2023-03-27T10:48:43.100Z,96630.78
2023-03-27T10:51:45.599Z,96633.22
2023-03-27T10:54:21.976Z,96632.41
2023-03-27T10:56:58.323Z,96628.41
2023-03-27T10:59:40.955Z,96642.13
2023-03-27T11:02:18.218Z,96637.47
2023-03-27T11:04:52.563Z,96649.28
2023-03-27T11:07:26.829Z,96645.31
2023-03-27T11:10:05.174Z,96650.44
2023-03-27T11:12:34.919Z,96650.28
2023-03-27T11:15:07.474Z,96656.03
2023-03-27T11:17:42.737Z,96652.22
2023-03-27T11:20:21.436Z,96662.66
2023-03-27T11:22:56.986Z,96675.91
2023-03-27T11:25:32.185Z,96666.59
2023-03-27T11:28:07.257Z,96658.88
2023-03-27T11:30:41.597Z,96669.88
2023-03-27T11:33:25.550Z,96676.59
2023-03-27T11:35:59.286Z,96673.63
2023-03-27T11:38:32.511Z,96674.75
2023-03-27T11:41:00.945Z,96680.53
2023-03-27T11:43:29.193Z,96678.38
2023-03-27T11:46:08.469Z,96676.59
2023-03-27T11:48:50.100Z,96680.59
2023-03-27T11:51:30.571Z,96678.34
2023-03-27T11:54:13.364Z,96676.97
2023-03-27T11:56:52.338Z,96693.88
2023-03-27T11:59:48.632Z,96693.09
2023-03-27T12:02:34.512Z,96714.78
2023-03-27T12:05:10.564Z,96705.09
2023-03-27T12:07:52.886Z,96721.91
2023-03-27T12:10:29.472Z,96714.66
2023-03-27T12:13:41.273Z,96716.41
2023-03-27T12:16:25.694Z,96722.66
2023-03-27T12:19:10.811Z,96727.84
2023-03-27T12:21:58.573Z,96722.28
2023-03-27T12:24:46.901Z,96707.81
2023-03-27T12:27:34.723Z,96727.09
2023-03-27T12:30:17.255Z,96731.25
2023-03-27T12:33:00.311Z,96730.69
2023-03-27T12:35:31.720Z,96732.16
2023-03-27T12:38:03.530Z,96718.63
2023-03-27T12:40:33.577Z,96736.00
2023-03-27T12:43:24.144Z,96727.03
2023-03-27T12:46:17.143Z,96730.44
2023-03-27T12:48:52.881Z,96730.47
2023-03-27T12:51:22.014Z,96735.69
2023-03-27T12:53:55.967Z,96735.94
2023-03-27T12:56:33.022Z,96734.47
2023-03-27T12:59:01.058Z,96741.72
2023-03-27T13:01:52.817Z,96747.19
2023-03-27T13:04:34.892Z,96746.94
2023-03-27T13:07:10.599Z,96746.41
2023-03-27T13:10:01.477Z,96739.44
2023-03-27T13:13:04.428Z,96748.66
2023-03-27T13:15:43.169Z,96742.50
2023-03-27T13:18:35.378Z,96754.13
2023-03-27T13:21:18.894Z,96738.69
2023-03-27T13:24:00.799Z,96751.56
2023-03-27T13:26:45.174Z,96752.72
2023-03-27T13:29:18.130Z,96743.25
2023-03-27T13:32:01.580Z,96750.91
2023-03-27T13:34:35.934Z,96753.81
2023-03-27T13:37:39.926Z,96768.75
2023-03-27T13:40:20.584Z,96777.63
2023-03-27T13:42:53.776Z,96776.75
2023-03-27T13:45:26.596Z,96788.19
2023-03-27T13:48:29.939Z,96791.00
2023-03-27T13:51:18.367Z,96789.28
2023-03-27T13:53:56.127Z,96800.63
2023-03-27T13:56:39.131Z,96797.06
2023-03-27T13:59:43.855Z,96805.16
2023-03-27T14:02:43.459Z,96801.75
2023-03-27T14:05:29.868Z,96790.59
2023-03-27T14:08:09.276Z,96814.59
2023-03-27T14:11:11.607Z,96805.84
2023-03-27T14:13:51.643Z,96813.63
2023-03-27T14:16:42.608Z,96810.59
2023-03-27T14:19:47.394Z,96817.09
2023-03-27T14:22:22.758Z,96815.91
2023-03-27T14:24:57.860Z,96820.41
2023-03-27T14:27:26.318Z,96821.34
2023-03-27T14:30:16.635Z,96827.44
2023-03-27T14:32:47.110Z,96832.63
2023-03-27T14:35:27.594Z,96835.03
2023-03-27T14:37:57.010Z,96830.09
2023-03-27T14:40:30.543Z,96830.09
2023-03-27T14:43:00.668Z,96829.97
2023-03-27T14:45:33.092Z,96820.41
2023-03-27T14:48:13.731Z,96837.81
2023-03-27T14:50:43.897Z,96806.69
2023-03-27T14:53:16.601Z,96832.47
2023-03-27T14:55:45.107Z,96789.66
2023-03-27T14:58:18.521Z,96828.88
2023-03-27T15:00:52.509Z,96825.13
2023-03-27T15:03:26.628Z,96812.22
2023-03-27T15:06:03.859Z,96824.75
2023-03-27T15:08:37.070Z,96824.91
2023-03-27T15:11:12.071Z,96822.56
2023-03-27T15:13:39.794Z,96816.66
2023-03-27T15:16:09.403Z,96819.31
2023-03-27T15:18:44.699Z,96812.66
2023-03-27T15:21:20.011Z,96821.81
2023-03-27T15:23:58.796Z,96825.59
2023-03-27T15:26:31.545Z,96828.22
2023-03-27T15:29:07.803Z,96824.78
2023-03-27T15:31:37.495Z,96841.03
2023-03-27T15:34:10.712Z,96829.00
2023-03-27T15:36:39.371Z,96833.50
2023-03-27T15:39:08.385Z,96832.44
2023-03-27T15:41:44.040Z,96829.44
2023-03-27T15:44:17.357Z,96835.41
2023-03-27T15:46:50.037Z,96840.84
2023-03-27T15:49:26.606Z,96840.22
2023-03-27T15:51:55.014Z,96847.50
2023-03-27T15:54:31.740Z,96850.69
2023-03-27T15:57:09.179Z,96850.03
2023-03-27T15:59:52.889Z,96850.94
2023-03-27T16:02:25.122Z,96850.56
2023-03-27T16:04:56.287Z,96851.88
2023-03-27T16:07:30.387Z,96853.44
2023-03-27T16:10:05.118Z,96853.03
2023-03-27T16:12:34.446Z,96841.50
2023-03-27T16:15:08.185Z,96855.31
2023-03-27T16:17:45.812Z,96853.34
2023-03-27T16:20:40.000Z,96851.78
2023-03-27T16:23:07.785Z,96861.31
2023-03-27T16:25:35.832Z,96873.03
2023-03-27T16:28:03.849Z,96874.66
2023-03-27T16:30:35.272Z,96873.63
2023-03-27T16:33:03.967Z,96873.56
2023-03-27T16:35:32.536Z,96877.28
2023-03-27T16:38:02.038Z,96880.59
2023-03-27T16:40:29.808Z,96875.63
2023-03-27T16:42:57.614Z,96882.16
2023-03-27T16:45:26.017Z,96883.56
2023-03-27T16:47:54.773Z,96859.22
2023-03-27T16:50:26.712Z,96890.97
2023-03-27T16:52:54.630Z,96885.44
2023-03-27T16:55:25.102Z,96892.38
2023-03-27T16:57:54.143Z,96886.47
2023-03-27T17:00:22.971Z,96887.06
2023-03-27T17:02:50.824Z,96892.53
2023-03-27T17:05:19.334Z,96898.41
2023-03-27T17:07:48.224Z,96894.56
2023-03-27T17:10:16.217Z,96902.53
2023-03-27T17:12:45.493Z,96909.56
2023-03-27T17:15:15.137Z,96912.06
2023-03-27T17:17:42.985Z,96924.53
2023-03-27T17:20:12.027Z,96916.00
2023-03-27T17:22:39.726Z,96919.44
2023-03-27T17:25:09.900Z,96907.75
2023-03-27T17:27:38.124Z,96924.53
2023-03-27T17:30:09.046Z,96930.66
2023-03-27T17:32:36.970Z,96927.75
2023-03-27T17:35:05.534Z,96942.06
2023-03-27T17:37:34.792Z,96941.44
2023-03-27T17:40:05.883Z,96946.28
2023-03-27T17:42:33.609Z,96953.84
2023-03-27T17:45:01.405Z,96941.75
2023-03-27T17:47:30.846Z,96953.81
2023-03-27T17:49:58.597Z,96954.25
2023-03-27T17:52:27.237Z,96968.25
2023-03-27T17:54:55.011Z,96966.72
2023-03-27T17:57:23.890Z,96963.72
2023-03-27T17:59:51.906Z,96964.94
2023-03-27T18:02:21.572Z,96977.25
2023-03-27T18:04:52.412Z,96958.59
2023-03-27T18:07:20.969Z,96971.25
2023-03-27T18:09:49.197Z,96976.94
2023-03-27T18:12:17.853Z,96983.31
2023-03-27T18:14:45.673Z,96986.22
2023-03-27T18:17:15.713Z,96992.28
2023-03-27T18:19:43.569Z,96998.63
2023-03-27T18:22:12.655Z,97001.53
2023-03-27T18:24:40.546Z,96992.53
2023-03-27T18:27:08.385Z,96998.91
2023-03-27T18:29:36.243Z,97005.41
2023-03-27T18:32:04.922Z,97007.19
2023-03-27T18:34:32.838Z,97018.44
2023-03-27T18:37:00.976Z,97020.72
2023-03-27T18:39:32.689Z,97018.44
2023-03-27T18:42:02.099Z,97029.94
2023-03-27T18:44:30.279Z,97024.06
2023-03-27T18:46:58.156Z,97030.56
2023-03-27T18:49:26.467Z,97037.25
2023-03-27T18:51:54.238Z,97038.72
2023-03-27T18:54:21.987Z,97055.06
2023-03-27T18:56:51.982Z,97046.38
2023-03-27T18:59:21.830Z,97058.06
2023-03-27T19:01:49.951Z,97063.03
2023-03-27T19:04:18.934Z,97070.41
2023-03-27T19:06:47.373Z,97073.53
2023-03-27T19:09:15.572Z,97069.66
2023-03-27T19:11:43.866Z,97077.13
2023-03-27T19:14:13.165Z,97081.16
2023-03-27T19:16:40.925Z,97085.72
2023-03-27T19:19:08.744Z,97095.66
2023-03-27T19:21:36.463Z,97105.25
2023-03-27T19:24:04.351Z,97106.53
2023-03-27T19:26:34.978Z,97111.94
2023-03-27T19:29:02.692Z,97112.22
2023-03-27T19:31:34.652Z,97111.13
2023-03-27T19:34:02.857Z,97122.34
2023-03-27T19:36:31.182Z,97120.41
2023-03-27T19:38:59.011Z,97126.84
2023-03-27T19:41:27.559Z,97121.75
2023-03-27T19:43:55.298Z,97128.88
2023-03-27T19:46:24.440Z,97124.63
2023-03-27T19:48:53.928Z,97133.50
2023-03-27T19:51:21.717Z,97136.03
2023-03-27T19:53:49.486Z,97134.75
2023-03-27T19:56:17.438Z,97133.94
2023-03-27T19:58:45.416Z,97138.22
2023-03-27T20:01:13.178Z,97130.13
2023-03-27T20:03:41.282Z,97140.50
2023-03-27T20:06:18.095Z,97143.72
2023-03-27T20:08:46.691Z,97145.50
2023-03-27T20:11:14.974Z,97153.91
2023-03-27T20:13:55.491Z,97151.91
2023-03-27T20:16:26.134Z,97140.75
2023-03-27T20:19:03.214Z,97154.94
2023-03-27T20:21:33.975Z,97148.94
2023-03-27T20:24:01.935Z,97150.59
2023-03-27T20:26:29.920Z,97150.38
2023-03-27T20:28:57.806Z,97152.13
2023-03-27T20:31:25.768Z,97150.78
2023-03-27T20:33:53.604Z,97159.50
2023-03-27T20:36:23.165Z,97154.91
2023-03-27T20:38:59.054Z,97152.59
2023-03-27T20:41:28.044Z,97158.00
2023-03-27T20:43:55.841Z,97157.59
2023-03-27T20:46:23.600Z,97160.53
2023-03-27T20:48:54.122Z,97165.53
2023-03-27T20:51:24.178Z,97165.22
2023-03-27T20:53:56.113Z,97189.16
2023-03-27T20:56:24.884Z,97180.53
2023-03-27T20:58:52.866Z,97180.53
2023-03-27T21:01:20.791Z,97185.19
2023-03-27T21:03:49.673Z,97183.94
2023-03-27T21:06:19.807Z,97189.53
2023-03-27T21:08:47.855Z,97188.91
2023-03-27T21:11:16.995Z,97194.19
2023-03-27T21:13:44.771Z,97195.84
2023-03-27T21:16:12.637Z,97205.44
2023-03-27T21:18:40.586Z,97193.25
2023-03-27T21:21:08.718Z,97208.53
2023-03-27T21:23:36.970Z,97206.03
2023-03-27T21:26:04.967Z,97205.03
2023-03-27T21:28:34.099Z,97210.00
2023-03-27T21:31:06.523Z,97203.97
2023-03-27T21:33:34.786Z,97202.75
2023-03-27T21:36:03.048Z,97196.84
2023-03-27T21:38:31.335Z,97196.69
2023-03-27T21:40:59.131Z,97201.31
2023-03-27T21:43:26.878Z,97195.72
2023-03-27T21:45:56.197Z,97206.13
2023-03-27T21:48:24.088Z,97197.72
2023-03-27T21:50:51.975Z,97200.84
2023-03-27T21:53:19.692Z,97215.56
2023-03-27T21:55:47.818Z,97214.38
2023-03-27T21:58:15.718Z,97213.13
2023-03-27T22:00:45.977Z,97225.00
2023-03-27T22:03:15.772Z,97220.56
2023-03-27T22:05:46.026Z,97226.50
2023-03-27T22:08:19.257Z,97228.66
2023-03-27T22:10:47.370Z,97232.66
2023-03-27T22:13:15.284Z,97242.22
2023-03-27T22:15:43.066Z,97238.91
2023-03-27T22:18:10.967Z,97246.66
2023-03-27T22:20:40.024Z,97245.63
2023-03-27T22:23:07.817Z,97252.72
2023-03-27T22:25:35.595Z,97249.44
2023-03-27T22:28:03.388Z,97250.72
2023-03-27T22:30:31.494Z,97254.84
2023-03-27T22:32:59.485Z,97256.69
2023-03-27T22:35:27.331Z,97260.31
2023-03-27T22:37:56.489Z,97257.88
2023-03-27T22:40:24.219Z,97256.53
2023-03-27T22:42:51.994Z,97263.47
2023-03-27T22:45:19.819Z,97267.13
2023-03-27T22:47:47.579Z,97268.13
2023-03-27T22:50:15.883Z,97275.03
2023-03-27T22:52:43.632Z,97277.50
2023-03-27T22:55:12.776Z,97276.03
2023-03-27T22:57:40.642Z,97275.69
2023-03-27T23:00:09.435Z,97275.16
2023-03-27T23:02:37.272Z,97280.78
2023-03-27T23:05:05.572Z,97282.91
2023-03-27T23:07:33.383Z,97283.72
2023-03-27T23:10:01.228Z,97288.16
2023-03-27T23:12:30.339Z,97273.13
2023-03-27T23:14:58.098Z,97279.41
2023-03-27T23:17:25.947Z,97289.97
2023-03-27T23:19:53.952Z,97296.56
2023-03-27T23:22:21.988Z,97305.03
2023-03-27T23:24:49.804Z,97305.56
2023-03-27T23:27:17.998Z,97307.72
2023-03-27T23:29:48.048Z,97295.50
2023-03-27T23:32:16.112Z,97297.31
2023-03-27T23:34:43.770Z,97300.13
2023-03-27T23:37:11.577Z,97299.63
2023-03-27T23:39:39.413Z,97303.09
2023-03-27T23:42:07.342Z,97296.50
2023-03-27T23:44:35.391Z,97296.84
2023-03-27T23:47:04.519Z,97308.88
2023-03-27T23:49:32.513Z,97310.53
2023-03-27T23:52:00.568Z,97317.78
2023-03-27T23:54:28.432Z,97316.81
2023-03-27T23:56:56.283Z,97330.00
2023-03-27T23:59:24.461Z,97325.41
